Time;durP1;ratioP1;P1;durP2;ratioP2;P2;SDS_P1;SDS_P2;PMS_P1;PMS_P2;Temp;Humidity;BMP_temperature;BMP_pressure;BME280_temperature;BME280_humidity;BME280_pressure;Samples;Min_cycle;Max_cycle;Signal;HPM_P1;HPM_P2
2022/06/09 00:02:25;;;;;;;2.63;2.43;;;;;;;15.62;82.17;96825.63;6196313;28;20230;-84
2022/06/09 00:05:28;;;;;;;2.83;2.63;;;;;;;15.64;82.02;96825.44;6219950;28;20227;-84
2022/06/09 00:08:30;;;;;;;4.10;2.77;;;;;;;15.67;82.02;96827.75;6197128;28;20775;-84
2022/06/09 00:11:36;;;;;;;3.00;2.40;;;;;;;15.64;81.91;96825.44;6201243;28;20712;-84
2022/06/09 00:14:39;;;;;;;2.80;2.33;;;;;;;15.63;81.81;96829.94;6189621;28;20230;-84
2022/06/09 00:17:42;;;;;;;3.00;2.70;;;;;;;15.61;81.96;96828.44;6216290;28;20731;-84
2022/06/09 00:20:45;;;;;;;3.17;2.87;;;;;;;15.56;82.29;96836.13;6225230;28;20243;-84
2022/06/09 00:23:47;;;;;;;3.30;3.00;;;;;;;15.50;82.50;96826.97;6207366;28;20294;-84
2022/06/09 00:26:50;;;;;;;2.77;2.53;;;;;;;15.47;82.70;96827.34;6215658;28;20239;-84
2022/06/09 00:29:52;;;;;;;3.90;2.67;;;;;;;15.46;82.60;96829.16;6216802;28;20888;-84
2022/06/09 00:32:54;;;;;;;4.03;3.23;;;;;;;15.50;82.72;96825.16;6216333;28;20250;-84
2022/06/09 00:35:56;;;;;;;3.27;2.97;;;;;;;15.56;82.74;96822.84;6233797;28;21071;-84
2022/06/09 00:38:59;;;;;;;3.23;3.03;;;;;;;15.65;82.57;96830.59;6208705;28;20727;-84
2022/06/09 00:42:01;;;;;;;2.97;2.67;;;;;;;15.71;82.34;96829.03;6191498;28;20224;-84
2022/06/09 00:45:38;;;;;;;3.33;2.53;;;;;;;15.77;82.44;96831.03;6206321;28;20371;-84
2022/06/09 00:48:52;;;;;;;2.60;2.40;;;;;;;15.74;82.53;96834.84;6193103;28;20236;-84
2022/06/09 00:51:58;;;;;;;3.53;2.77;;;;;;;15.70;82.62;96838.03;6215917;28;20318;-84
2022/06/09 00:55:06;;;;;;;3.37;3.13;;;;;;;15.65;82.51;96833.25;6216054;28;20378;-84
2022/06/09 00:58:13;;;;;;;3.47;3.00;;;;;;;15.58;82.90;96832.28;6231788;28;20240;-84
2022/06/09 01:01:53;;;;;;;3.50;2.80;;;;;;;15.54;82.95;96828.31;6215675;28;20236;-84
2022/06/09 01:04:56;;;;;;;3.40;3.17;;;;;;;15.52;82.94;96824.97;6177053;28;20232;-84
2022/06/09 01:08:01;;;;;;;3.00;2.80;;;;;;;15.50;82.97;96825.16;6232542;28;20220;-84
2022/06/09 01:11:04;;;;;;;3.03;2.77;;;;;;;15.48;83.42;96827.16;6225574;28;20764;-84
2022/06/09 01:14:12;;;;;;;4.73;3.73;;;;;;;15.49;83.39;96822.66;6206626;28;20340;-84
2022/06/09 01:17:21;;;;;;;5.20;3.90;;;;;;;15.49;83.61;96834.13;6207974;28;20231;-84
2022/06/09 01:20:57;;;;;;;4.00;3.70;;;;;;;15.47;84.01;96825.47;6223813;28;20235;-84
2022/06/09 01:24:36;;;;;;;4.50;4.10;;;;;;;15.42;84.51;96835.81;6221822;28;20247;-85
2022/06/09 01:28:06;;;;;;;4.97;4.37;;;;;;;15.39;84.94;96841.47;6213910;28;20238;-84
2022/06/09 01:31:43;;;;;;;5.23;4.80;;;;;;;15.46;85.83;96836.31;6214398;28;20239;-84
2022/06/09 01:34:45;;;;;;;10.97;6.37;;;;;;;15.60;86.30;96843.56;6231224;28;20272;-84
2022/06/09 01:37:53;;;;;;;5.60;5.10;;;;;;;15.65;86.06;96851.03;6214258;28;20273;-84
2022/06/09 01:40:55;;;;;;;5.37;4.80;;;;;;;15.63;86.14;96855.69;6232228;28;20242;-84
2022/06/09 01:43:59;;;;;;;4.77;3.13;;;;;;;15.67;83.86;96849.84;6214271;28;20640;-84
2022/06/09 01:47:01;;;;;;;3.23;2.93;;;;;;;15.71;82.30;96847.66;6216338;28;20232;-84
2022/06/09 01:50:08;;;;;;;4.13;2.50;;;;;;;15.73;81.03;96851.00;6194463;28;20241;-84
2022/06/09 01:53:15;;;;;;;1.73;1.60;;;;;;;15.74;80.34;96844.66;6231521;28;20702;-84
2022/06/09 01:56:20;;;;;;;4.27;1.60;;;;;;;15.76;79.90;96848.00;6214580;28;20231;-85
2022/06/09 01:59:32;;;;;;;2.50;2.00;;;;;;;15.76;79.26;96858.63;6213793;28;20846;-84
2022/06/09 03:02:06;;;;;;;0.50;0.50;;;;;;;15.33;74.05;96862.63;3966448;28;20678;-86
2022/06/09 03:05:09;;;;;;;0.80;0.63;;;;;;;15.33;74.30;96860.81;6233850;28;20305;-84
2022/06/09 03:08:11;;;;;;;1.73;0.70;;;;;;;15.35;74.41;96871.25;6230464;28;20326;-84
2022/06/09 03:11:14;;;;;;;1.30;0.90;;;;;;;15.29;74.58;96869.28;6228862;28;20679;-84
2022/06/09 03:14:16;;;;;;;1.00;0.60;;;;;;;15.30;74.40;96868.28;6221414;28;20251;-84
2022/06/09 03:17:18;;;;;;;0.63;0.57;;;;;;;15.25;73.86;96879.44;6194068;28;20309;-84
2022/06/09 03:20:26;;;;;;;1.03;0.70;;;;;;;15.21;73.68;96874.63;6206428;28;20844;-84
2022/06/09 03:23:28;;;;;;;0.60;0.60;;;;;;;15.19;73.69;96866.81;6228632;28;20231;-84
2022/06/09 03:26:30;;;;;;;0.40;0.40;;;;;;;15.16;73.26;96869.84;6228272;28;20220;-84
2022/06/09 03:29:32;;;;;;;0.50;0.50;;;;;;;15.14;73.84;96874.50;6227105;28;20342;-84
2022/06/09 03:32:34;;;;;;;1.50;0.63;;;;;;;15.10;73.97;96875.81;6228956;28;20231;-84
2022/06/09 03:35:37;;;;;;;0.70;0.60;;;;;;;15.09;73.71;96879.47;6227887;28;20772;-85
2022/06/09 03:38:40;;;;;;;1.17;0.63;;;;;;;15.10;74.35;96889.13;6227597;28;20236;-85
2022/06/09 03:41:42;;;;;;;1.50;0.67;;;;;;;15.07;75.56;96877.00;6228042;28;20316;-84
2022/06/09 03:44:46;;;;;;;0.90;0.80;;;;;;;15.03;76.31;96878.34;6228518;28;20230;-84
2022/06/09 03:47:48;;;;;;;4.57;0.67;;;;;;;14.99;77.54;96889.47;6228674;28;20285;-85
2022/06/09 03:50:50;;;;;;;3.23;0.90;;;;;;;14.89;77.81;96881.69;6227320;28;20269;-85
2022/06/09 03:53:52;;;;;;;1.27;0.67;;;;;;;14.85;77.35;96904.31;6228088;28;20270;-85
2022/06/09 03:56:55;;;;;;;1.33;0.80;;;;;;;14.75;78.08;96887.72;6227108;28;20696;-85
2022/06/09 03:59:57;;;;;;;1.20;0.70;;;;;;;14.68;78.28;96889.38;6211138;28;20274;-84
2022/06/09 04:02:59;;;;;;;2.03;0.70;;;;;;;14.61;79.64;96899.00;6214541;28;20359;-84
2022/06/09 04:06:01;;;;;;;2.53;0.70;;;;;;;14.49;79.32;96892.38;6228419;28;20312;-83
2022/06/09 04:09:05;;;;;;;0.93;0.60;;;;;;;14.46;79.87;96893.56;6227318;28;20216;-84
2022/06/09 04:12:08;;;;;;;2.60;0.93;;;;;;;14.46;80.53;96896.22;6227962;28;20208;-84
2022/06/09 04:15:16;;;;;;;1.30;0.87;;;;;;;14.43;80.76;96895.69;6229979;28;20270;-83
2022/06/09 04:18:18;;;;;;;1.93;0.80;;;;;;;14.29;81.81;96887.38;6226890;28;20212;-83
2022/06/09 04:21:21;;;;;;;0.60;0.60;;;;;;;14.19;82.18;96883.22;6227168;28;20228;-84
2022/06/09 04:24:23;;;;;;;0.87;0.80;;;;;;;14.16;81.83;96896.84;6228412;28;20711;-84
2022/06/09 04:27:25;;;;;;;1.27;0.90;;;;;;;14.21;80.99;96895.31;6220091;28;20254;-84
2022/06/09 04:30:27;;;;;;;2.77;0.70;;;;;;;14.20;82.12;96908.75;6239202;28;20713;-84
2022/06/09 04:33:29;;;;;;;1.50;0.77;;;;;;;14.22;82.74;96914.75;6226865;28;20227;-84
2022/06/09 04:36:31;;;;;;;1.10;0.77;;;;;;;14.22;83.25;96901.47;6203488;28;20316;-84
2022/06/09 04:39:35;;;;;;;1.30;0.90;;;;;;;14.19;82.81;96917.72;6206818;28;20232;-84
2022/06/09 04:42:37;;;;;;;1.00;0.90;;;;;;;14.16;83.38;96923.38;6212069;28;20224;-85
2022/06/09 04:45:40;;;;;;;0.90;0.90;;;;;;;14.12;83.75;96917.53;6211278;28;20243;-84
2022/06/09 04:48:43;;;;;;;1.80;1.10;;;;;;;14.15;83.58;96913.75;6230524;28;20796;-84
2022/06/09 04:51:45;;;;;;;2.00;0.87;;;;;;;14.14;83.45;96920.03;6216077;28;20310;-84
2022/06/09 04:54:47;;;;;;;1.30;0.80;;;;;;;14.16;83.70;96934.81;6216742;28;20311;-85
2022/06/09 04:57:49;;;;;;;1.70;0.80;;;;;;;14.18;83.81;96929.31;6207185;28;20306;-85
2022/06/09 05:00:52;;;;;;;0.83;0.80;;;;;;;14.15;83.31;96921.72;6205090;28;20267;-85
2022/06/09 05:03:54;;;;;;;2.87;1.00;;;;;;;14.11;82.42;96925.66;6211477;28;20240;-85
2022/06/09 05:06:56;;;;;;;0.80;0.80;;;;;;;14.13;81.76;96926.34;6205487;28;20264;-84
2022/06/09 05:09:58;;;;;;;1.37;1.00;;;;;;;14.18;82.46;96924.00;6229115;28;20329;-84
2022/06/09 05:13:01;;;;;;;1.67;1.17;;;;;;;14.17;82.71;96922.38;6247844;28;20588;-85
2022/06/09 05:16:05;;;;;;;1.30;0.90;;;;;;;14.14;81.77;96920.03;6231459;28;20308;-84
2022/06/09 05:19:07;;;;;;;2.00;0.90;;;;;;;14.20;81.85;96930.00;6246666;28;20231;-85
2022/06/09 05:22:09;;;;;;;1.10;0.90;;;;;;;14.29;81.79;96934.31;6230479;28;20231;-84
2022/06/09 05:25:12;;;;;;;2.20;1.10;;;;;;;14.31;81.31;96945.59;6222368;28;20228;-84
2022/06/09 05:28:16;;;;;;;1.90;0.80;;;;;;;14.35;81.87;96953.09;6205514;28;20231;-84
2022/06/09 05:31:18;;;;;;;1.27;1.00;;;;;;;14.38;81.13;96951.91;6230347;28;20374;-84
2022/06/09 05:34:20;;;;;;;0.97;0.90;;;;;;;14.37;80.56;96959.03;6231401;28;20232;-84
2022/06/09 05:37:23;;;;;;;1.80;0.80;;;;;;;14.37;80.79;96961.69;6230814;28;20289;-84
2022/06/09 05:47:07;;;;;;;1.20;1.00;;;;;;;14.60;80.48;96953.13;6232417;28;20240;-85
2022/06/09 05:50:10;;;;;;;1.00;0.90;;;;;;;14.63;80.57;96958.09;6246792;28;20318;-85
2022/06/09 05:53:13;;;;;;;1.70;0.97;;;;;;;14.65;79.58;96959.59;6229873;28;20234;-84
2022/06/09 05:56:16;;;;;;;1.10;0.83;;;;;;;14.66;79.46;96960.44;6205449;28;20270;-85
2022/06/09 05:59:18;;;;;;;1.27;0.70;;;;;;;14.74;79.86;96971.06;6212987;28;20383;-84
2022/06/09 06:02:23;;;;;;;1.23;0.90;;;;;;;14.76;79.50;96966.41;6216094;28;20778;-84
2022/06/09 06:08:46;;;;;;;0.90;0.80;;;;;;;14.78;80.73;96967.88;6230960;28;20247;-84
2022/06/09 06:11:48;;;;;;;1.37;0.90;;;;;;;14.81;80.04;96968.56;6230304;28;20242;-84
2022/06/09 06:14:50;;;;;;;2.40;0.87;;;;;;;14.86;80.11;96976.88;6247051;28;20242;-84
2022/06/09 06:17:56;;;;;;;1.87;1.07;;;;;;;14.87;80.07;96966.06;6230580;28;20781;-86
2022/06/09 06:20:58;;;;;;;2.17;0.83;;;;;;;14.89;79.91;96984.47;6232218;28;20318;-83
2022/06/09 06:24:01;;;;;;;1.20;0.80;;;;;;;14.96;79.12;96969.56;6228804;28;20227;-85
2022/06/09 06:27:04;;;;;;;1.23;0.97;;;;;;;15.09;79.20;96983.13;6230964;28;20721;-83
2022/06/09 06:30:23;;;;;;;1.00;0.70;;;;;;;15.17;78.75;96974.34;6230352;28;20219;-83
2022/06/09 06:33:25;;;;;;;0.83;0.83;;;;;;;15.11;78.07;96983.81;6228797;28;20357;-86
2022/06/09 06:36:29;;;;;;;0.83;0.60;;;;;;;15.26;78.11;96984.78;6228436;28;20712;-84
2022/06/09 06:39:31;;;;;;;1.07;0.80;;;;;;;15.44;77.92;96976.59;6229001;28;20230;-84
2022/06/09 06:42:33;;;;;;;1.37;0.87;;;;;;;15.50;77.12;96990.03;6229867;28;20243;-85
2022/06/09 06:45:36;;;;;;;2.03;0.70;;;;;;;15.56;76.54;96985.91;6229359;28;20298;-86
2022/06/09 06:48:38;;;;;;;0.70;0.70;;;;;;;15.66;77.00;96986.53;6230410;28;20242;-85
2022/06/09 06:51:40;;;;;;;2.47;0.90;;;;;;;15.72;77.39;96992.97;6232118;28;20224;-86
2022/06/09 06:54:42;;;;;;;2.90;0.63;;;;;;;15.75;76.65;96984.66;6248530;28;20236;-85
2022/06/09 06:57:44;;;;;;;0.70;0.70;;;;;;;15.81;76.44;96981.31;6230555;28;20642;-83
2022/06/09 07:00:46;;;;;;;1.53;0.70;;;;;;;16.00;77.17;96990.69;6231623;28;20622;-84
2022/06/09 07:03:48;;;;;;;1.80;0.77;;;;;;;16.05;75.89;96999.00;6229921;28;20219;-84
2022/06/09 07:06:50;;;;;;;2.10;0.77;;;;;;;16.09;75.95;96990.47;6213496;28;20227;-84
2022/06/09 07:09:52;;;;;;;1.00;0.73;;;;;;;16.11;75.47;96977.00;6211775;28;20754;-84
2022/06/09 07:12:54;;;;;;;1.77;0.67;;;;;;;16.22;75.19;96992.59;6220634;28;20705;-84
2022/06/09 07:15:56;;;;;;;1.20;1.10;;;;;;;16.31;74.59;96988.03;6209788;28;20699;-84
2022/06/09 07:19:02;;;;;;;1.70;0.80;;;;;;;16.36;74.03;96986.53;6244187;28;20228;-85
2022/06/09 07:22:06;;;;;;;1.80;0.67;;;;;;;16.44;73.78;97002.44;6230280;28;20310;-84
2022/06/09 07:25:11;;;;;;;0.63;0.63;;;;;;;16.35;73.82;96998.19;6220202;28;20708;-84
2022/06/09 07:28:13;;;;;;;1.47;0.93;;;;;;;16.44;74.26;96997.13;6228797;28;20321;-84
2022/06/09 07:31:15;;;;;;;0.93;0.70;;;;;;;16.57;74.31;97010.66;6229529;28;20258;-84
2022/06/09 07:34:19;;;;;;;2.20;0.80;;;;;;;16.57;73.33;96993.84;6241455;28;20236;-84
2022/06/09 07:37:21;;;;;;;1.37;0.70;;;;;;;16.63;73.20;97003.00;6205105;28;20235;-84
2022/06/09 07:40:23;;;;;;;2.13;0.70;;;;;;;16.76;72.02;97001.44;6244373;28;20257;-84
2022/06/09 07:43:25;;;;;;;0.83;0.80;;;;;;;16.93;72.75;96997.63;6216834;28;20286;-84
2022/06/09 07:46:27;;;;;;;0.60;0.60;;;;;;;16.85;71.37;97008.34;6196622;28;20240;-84
2022/06/09 07:49:29;;;;;;;1.90;0.90;;;;;;;16.95;72.35;97003.59;6220463;28;20290;-84
2022/06/09 07:52:31;;;;;;;1.60;0.90;;;;;;;17.06;71.57;97004.19;6228688;28;20262;-84
2022/06/09 07:55:33;;;;;;;0.90;0.60;;;;;;;17.04;71.13;97001.69;6219801;28;20235;-84
2022/06/09 07:58:35;;;;;;;0.97;0.73;;;;;;;16.97;71.29;96998.88;6225422;28;20235;-84
2022/06/09 08:01:50;;;;;;;1.23;0.87;;;;;;;16.89;71.34;97011.47;6227743;28;20228;-83
2022/06/09 08:04:58;;;;;;;0.70;0.70;;;;;;;16.72;71.55;97013.44;6203230;28;20229;-84
2022/06/09 08:08:00;;;;;;;1.53;0.70;;;;;;;16.71;71.12;97022.44;6197766;28;20256;-84
2022/06/09 08:11:05;;;;;;;1.20;0.80;;;;;;;16.51;71.63;97007.88;6187028;28;20236;-84
2022/06/09 08:14:08;;;;;;;1.60;0.77;;;;;;;16.49;72.08;97017.88;6203368;28;20260;-84
2022/06/09 08:17:11;;;;;;;4.10;0.80;;;;;;;16.41;72.37;97015.28;6189388;28;20715;-84
2022/06/09 08:20:14;;;;;;;0.90;0.60;;;;;;;16.21;72.52;97012.22;6197815;28;20781;-84
2022/06/09 08:23:33;;;;;;;1.40;0.80;;;;;;;15.97;73.33;97029.13;6195216;28;20236;-83
2022/06/09 08:26:35;;;;;;;1.47;0.90;;;;;;;15.97;73.92;97020.34;6208007;28;20224;-84
2022/06/09 08:29:37;;;;;;;0.77;0.70;;;;;;;15.88;73.82;97019.53;6209080;28;20773;-84
2022/06/09 08:32:39;;;;;;;1.03;0.60;;;;;;;15.86;73.94;97025.03;6207510;28;20718;-84
2022/06/09 08:35:42;;;;;;;0.80;0.70;;;;;;;15.91;74.25;97032.50;6175644;28;20227;-84
2022/06/09 08:38:46;;;;;;;0.70;0.70;;;;;;;15.86;74.74;97033.03;6208344;28;20787;-84
2022/06/09 08:41:58;;;;;;;0.80;0.70;;;;;;;15.86;74.77;97029.53;6189907;28;20319;-84
2022/06/09 08:45:11;;;;;;;3.87;0.80;;;;;;;15.84;75.35;97034.19;6193230;28;20374;-84
2022/06/09 08:48:18;;;;;;;0.80;0.60;;;;;;;15.75;74.98;97030.72;6232378;28;20237;-83
2022/06/09 08:51:26;;;;;;;0.70;0.67;;;;;;;15.70;75.45;97029.56;6191402;28;20560;-84
2022/06/09 08:54:35;;;;;;;1.07;0.73;;;;;;;15.64;75.67;97039.06;6211167;28;20224;-84
2022/06/09 08:57:38;;;;;;;0.60;0.60;;;;;;;15.51;75.45;97044.88;6191126;28;20366;-84
2022/06/09 09:00:49;;;;;;;2.30;0.80;;;;;;;15.45;75.91;97044.75;6190082;28;20220;-84
2022/06/09 09:04:25;;;;;;;1.53;0.73;;;;;;;15.36;76.23;97041.25;6175733;28;20320;-84
2022/06/09 09:07:32;;;;;;;0.80;0.80;;;;;;;15.41;76.33;97048.72;6189500;28;20248;-84
2022/06/09 09:10:50;;;;;;;0.83;0.67;;;;;;;15.41;75.35;97048.72;6191203;28;20311;-83
2022/06/09 09:14:00;;;;;;;2.03;0.73;;;;;;;15.54;76.19;97046.41;6206345;28;20325;-84
2022/06/09 09:17:25;;;;;;;1.57;0.90;;;;;;;15.64;75.44;97051.53;6192163;28;20788;-85
2022/06/09 09:20:55;;;;;;;0.83;0.80;;;;;;;15.65;75.36;97046.06;6174265;28;20221;-84
2022/06/09 09:24:44;;;;;;;1.17;0.70;;;;;;;15.73;75.68;97053.19;6189525;28;20225;-84
2022/06/09 09:27:58;;;;;;;0.90;0.80;;;;;;;15.69;75.40;97050.00;6120536;28;20230;-84
2022/06/09 09:31:20;;;;;;;1.43;1.13;;;;;;;15.68;75.45;97050.19;6132088;28;20319;-84
2022/06/09 09:34:28;;;;;;;0.70;0.70;;;;;;;15.87;75.22;97055.94;6117435;28;20298;-84
2022/06/09 09:37:40;;;;;;;1.13;0.87;;;;;;;16.01;75.09;97053.56;6100568;28;20265;-84
2022/06/09 09:40:46;;;;;;;0.80;0.80;;;;;;;16.03;74.88;97048.91;6117161;28;20244;-84
2022/06/09 09:43:48;;;;;;;1.90;0.87;;;;;;;16.04;75.19;97054.06;6132482;28;20231;-84
2022/06/09 09:46:57;;;;;;;2.00;0.97;;;;;;;16.09;74.84;97054.38;6116518;28;20249;-84
2022/06/09 09:50:07;;;;;;;0.70;0.70;;;;;;;16.13;74.50;97060.19;6116871;28;20285;-83
2022/06/09 09:53:18;;;;;;;1.30;0.90;;;;;;;16.17;74.74;97059.66;6116183;28;20234;-84
2022/06/09 09:56:20;;;;;;;1.10;1.00;;;;;;;16.17;74.77;97067.66;6133761;28;20257;-83
2022/06/09 09:59:26;;;;;;;1.20;0.83;;;;;;;16.30;74.53;97056.44;6131835;28;20226;-84
2022/06/09 10:09:42;;;;;;;1.30;1.00;;;;;;;16.17;74.84;97056.19;6213447;28;20234;-84
2022/06/09 10:13:01;;;;;;;0.80;0.80;;;;;;;16.01;75.70;97065.06;6229580;28;20298;-86
2022/06/09 10:16:21;;;;;;;1.57;0.90;;;;;;;15.81;76.97;97069.13;6232119;28;20596;-86
2022/06/09 10:19:40;;;;;;;1.13;0.80;;;;;;;15.63;77.79;97073.81;6229487;28;20300;-85
2022/06/09 10:23:16;;;;;;;1.23;1.10;;;;;;;15.54;78.52;97067.69;6213560;28;20228;-85
2022/06/09 10:26:22;;;;;;;1.63;0.80;;;;;;;15.45;79.50;97079.31;6233580;28;20714;-85
2022/06/09 10:29:44;;;;;;;1.90;0.80;;;;;;;15.48;80.33;97081.59;6230690;28;20236;-84
2022/06/09 10:32:53;;;;;;;0.97;0.83;;;;;;;15.36;81.39;97069.69;6230218;28;20236;-86
2022/06/09 10:36:07;;;;;;;1.20;1.00;;;;;;;15.45;81.64;97082.78;6228874;28;20231;-85
2022/06/09 10:39:37;;;;;;;1.13;0.90;;;;;;;15.54;81.43;97081.00;6245990;28;20220;-86
2022/06/09 10:42:59;;;;;;;3.30;0.70;;;;;;;15.55;81.15;97082.66;6196083;28;20293;-85
2022/06/09 10:46:12;;;;;;;0.90;0.90;;;;;;;15.65;81.40;97091.28;6220792;28;20643;-86
2022/06/09 10:56:33;;;;;;;2.30;0.87;;;;;;;15.83;80.63;97093.72;6211076;28;20240;-86
2022/06/09 10:59:40;;;;;;;0.83;0.80;;;;;;;15.87;81.05;97089.75;6212542;28;20306;-87
2022/06/09 11:02:48;;;;;;;0.70;0.70;;;;;;;15.96;80.43;97094.03;6219920;28;20352;-85
2022/06/09 11:06:26;;;;;;;0.60;0.60;;;;;;;16.11;79.91;97094.13;6217906;28;20711;-86
2022/06/09 11:09:45;;;;;;;0.80;0.70;;;;;;;16.19;80.09;97084.28;6244082;28;20216;-86
2022/06/09 11:13:11;;;;;;;0.73;0.70;;;;;;;16.31;78.66;97089.22;6227696;28;20282;-86
2022/06/09 11:16:27;;;;;;;1.63;0.83;;;;;;;16.46;79.44;97095.50;6229650;28;20708;-85
2022/06/09 11:19:38;;;;;;;0.80;0.70;;;;;;;16.74;79.12;97101.19;6212029;28;20370;-85
2022/06/09 11:23:11;;;;;;;0.60;0.60;;;;;;;16.95;78.58;97093.41;6228370;28;20240;-85
2022/06/09 11:26:25;;;;;;;0.83;0.70;;;;;;;17.11;77.53;97089.78;6220039;28;20232;-85
2022/06/09 11:29:43;;;;;;;1.07;0.50;;;;;;;17.34;76.96;97090.59;6196037;28;20359;-85
2022/06/09 11:33:03;;;;;;;0.60;0.60;;;;;;;17.53;76.13;97089.25;6228994;28;20495;-84
2022/06/09 11:36:14;;;;;;;0.70;0.70;;;;;;;17.74;75.69;97085.91;6227260;28;20227;-85
2022/06/09 11:39:39;;;;;;;1.23;0.80;;;;;;;17.92;75.54;97095.22;6229344;28;20229;-86
2022/06/09 11:43:11;;;;;;;0.67;0.67;;;;;;;17.82;74.61;97084.00;6227367;28;20246;-85
2022/06/09 11:46:26;;;;;;;0.70;0.70;;;;;;;17.80;74.56;97087.84;6191846;28;20231;-85
2022/06/09 11:49:38;;;;;;;1.03;0.57;;;;;;;17.76;74.14;97089.25;6226387;28;20238;-85
2022/06/09 11:52:48;;;;;;;0.70;0.70;;;;;;;17.63;73.79;97101.38;6227450;28;20243;-85
2022/06/09 11:55:57;;;;;;;1.17;0.83;;;;;;;17.41;73.48;97091.53;6227719;28;20263;-85
2022/06/09 11:59:39;;;;;;;1.67;0.80;;;;;;;17.43;74.25;97096.69;6229925;28;20334;-85
2022/06/09 13:02:14;;;;;;;0.70;0.70;;;;;;;16.95;73.24;97112.91;4161399;28;20236;-85
2022/06/09 13:05:27;;;;;;;0.97;0.80;;;;;;;16.94;73.58;97116.56;6211052;28;20216;-85
2022/06/09 13:08:29;;;;;;;0.80;0.80;;;;;;;16.83;74.83;97108.13;6214818;28;20266;-85
2022/06/09 13:15:08;;;;;;;0.70;0.67;;;;;;;16.89;75.55;97129.56;6207740;28;20482;-85
2022/06/09 13:18:35;;;;;;;1.60;0.97;;;;;;;16.90;75.55;97127.75;6214778;28;20220;-85
2022/06/09 13:21:41;;;;;;;0.80;0.80;;;;;;;16.85;75.74;97128.28;6174805;28;20282;-85
2022/06/09 13:24:50;;;;;;;1.23;1.07;;;;;;;16.68;75.19;97118.69;6205374;28;20225;-85
2022/06/09 13:27:53;;;;;;;1.00;1.00;;;;;;;16.75;75.52;97125.00;6213689;28;20278;-85
2022/06/09 13:30:56;;;;;;;0.90;0.90;;;;;;;16.76;75.92;97125.84;6240850;28;20223;-85
2022/06/09 13:34:13;;;;;;;0.83;0.80;;;;;;;16.75;76.67;97125.00;6217006;28;20307;-85
2022/06/09 13:37:19;;;;;;;1.43;1.00;;;;;;;16.80;76.85;97127.97;6218129;28;20307;-85
2022/06/09 13:40:21;;;;;;;0.93;0.90;;;;;;;16.82;77.04;97135.78;6197561;28;20338;-85
2022/06/09 13:43:36;;;;;;;1.17;0.77;;;;;;;17.04;76.92;97123.50;6231704;28;20790;-85
2022/06/09 13:46:59;;;;;;;1.00;0.90;;;;;;;17.45;76.85;97122.19;6213795;28;20227;-85
2022/06/09 13:50:12;;;;;;;0.87;0.87;;;;;;;17.65;75.86;97120.69;6232130;28;20246;-85
2022/06/09 13:53:30;;;;;;;0.90;0.80;;;;;;;17.73;74.85;97129.63;6214076;28;20583;-85
2022/06/09 13:56:34;;;;;;;0.70;0.70;;;;;;;17.68;74.52;97139.00;6213370;28;20314;-86
2022/06/09 13:59:36;;;;;;;0.70;0.70;;;;;;;17.55;74.00;97136.09;6213230;28;20705;-86
2022/06/09 14:02:56;;;;;;;1.73;0.73;;;;;;;17.49;75.79;97141.31;6229345;28;20350;-85
2022/06/09 14:06:07;;;;;;;1.37;0.60;;;;;;;17.37;75.91;97140.09;6205747;28;20588;-85
2022/06/09 14:09:13;;;;;;;0.70;0.70;;;;;;;16.98;75.04;97144.50;6207527;28;20327;-86
2022/06/09 14:12:16;;;;;;;0.60;0.60;;;;;;;17.02;75.81;97128.16;6251392;28;20207;-85
2022/06/09 14:15:20;;;;;;;0.60;0.60;;;;;;;17.06;75.27;97122.31;6255797;28;20207;-85
2022/06/09 14:18:25;;;;;;;1.87;0.80;;;;;;;16.88;75.16;97140.41;6237292;28;20226;-85
2022/06/09 14:21:29;;;;;;;0.90;0.83;;;;;;;16.74;75.57;97128.69;6254385;28;20247;-85
2022/06/09 14:24:31;;;;;;;0.67;0.67;;;;;;;16.85;76.04;97114.97;6250009;28;20223;-85
2022/06/09 14:27:33;;;;;;;0.97;0.90;;;;;;;16.78;76.22;97137.97;6220266;28;20333;-85
2022/06/09 14:30:36;;;;;;;1.03;0.93;;;;;;;16.70;76.03;97130.03;6256817;28;20237;-86
2022/06/09 14:33:38;;;;;;;0.80;0.80;;;;;;;16.78;75.91;97132.63;6237607;28;20242;-85
2022/06/09 14:36:43;;;;;;;2.73;1.43;;;;;;;16.55;76.57;97135.25;6221898;28;20223;-86
2022/06/09 14:39:45;;;;;;;1.10;1.07;;;;;;;16.53;76.84;97128.41;6237604;28;20229;-86
2022/06/09 14:42:47;;;;;;;1.03;0.90;;;;;;;16.66;77.08;97122.56;6238085;28;20281;-85
2022/06/09 14:45:53;;;;;;;1.37;1.27;;;;;;;16.51;77.41;97127.75;6221131;28;20234;-85
2022/06/09 14:48:56;;;;;;;1.20;1.10;;;;;;;16.59;77.32;97136.53;6236923;28;20234;-85
2022/06/09 14:51:58;;;;;;;1.33;1.23;;;;;;;16.53;77.47;97144.41;6236993;28;20233;-85
2022/06/09 14:55:00;;;;;;;1.60;1.50;;;;;;;16.46;76.98;97154.09;6220652;28;20581;-86
2022/06/09 14:58:03;;;;;;;2.70;1.30;;;;;;;16.43;77.03;97141.13;6220642;28;20780;-85
2022/06/09 15:01:05;;;;;;;1.43;1.33;;;;;;;16.44;77.10;97154.25;6228884;28;20322;-86
2022/06/09 15:04:08;;;;;;;1.40;1.20;;;;;;;16.43;76.94;97149.94;6238074;28;20354;-87
2022/06/09 15:07:17;;;;;;;1.10;1.10;;;;;;;16.34;77.55;97145.66;6228812;28;20599;-86
2022/06/09 15:10:23;;;;;;;1.33;1.23;;;;;;;16.26;77.06;97166.16;6184462;28;20323;-87
2022/06/09 15:13:26;;;;;;;2.33;1.50;;;;;;;16.14;77.44;97163.03;6201182;28;20330;-86
2022/06/09 15:16:29;;;;;;;1.23;1.00;;;;;;;16.10;77.96;97178.50;6236471;28;20231;-86
2022/06/09 15:19:40;;;;;;;1.00;1.00;;;;;;;16.00;78.13;97177.00;6210595;28;20228;-85
2022/06/09 15:22:42;;;;;;;1.63;1.20;;;;;;;15.95;78.42;97188.19;6229052;28;20234;-85
2022/06/09 15:25:46;;;;;;;1.33;1.23;;;;;;;15.87;78.27;97169.56;6211106;28;20235;-84
2022/06/09 15:28:49;;;;;;;1.63;1.23;;;;;;;15.92;78.36;97193.00;6213087;28;20243;-85
2022/06/09 15:31:52;;;;;;;1.10;1.10;;;;;;;15.90;78.92;97187.00;6202259;28;20371;-85
2022/06/09 15:34:54;;;;;;;1.60;1.33;;;;;;;15.88;79.22;97189.84;6236271;28;20238;-85
2022/06/09 15:37:56;;;;;;;1.27;1.17;;;;;;;15.83;78.90;97185.03;6227772;28;20239;-86
2022/06/09 15:40:59;;;;;;;1.20;1.20;;;;;;;15.86;78.82;97189.19;6213776;28;20238;-85
2022/06/09 15:44:02;;;;;;;0.97;0.97;;;;;;;15.95;79.12;97184.69;6231124;28;20249;-86
2022/06/09 15:47:04;;;;;;;1.00;1.00;;;;;;;16.02;78.72;97180.34;6256794;28;20258;-86
2022/06/09 15:50:10;;;;;;;1.40;1.30;;;;;;;15.96;78.62;97183.69;6257655;28;20226;-84
2022/06/09 15:53:13;;;;;;;1.00;1.00;;;;;;;15.96;78.87;97189.84;6236388;28;20726;-85
2022/06/09 15:56:15;;;;;;;1.63;1.23;;;;;;;15.90;79.40;97224.28;6227593;28;20718;-85
2022/06/09 15:59:17;;;;;;;0.90;0.90;;;;;;;15.85;80.16;97217.63;6241495;28;20724;-85
2022/06/09 16:02:19;;;;;;;1.70;1.20;;;;;;;15.76;80.25;97223.13;6235354;28;20283;-85
2022/06/09 16:05:22;;;;;;;1.83;1.00;;;;;;;15.74;80.80;97211.81;6254873;28;20630;-84
2022/06/09 16:08:26;;;;;;;1.20;0.97;;;;;;;15.68;81.32;97223.94;6252864;28;20237;-85
2022/06/09 16:11:28;;;;;;;0.97;0.90;;;;;;;15.66;81.94;97219.81;6235978;28;20618;-84
2022/06/09 16:14:30;;;;;;;1.17;1.07;;;;;;;15.62;82.75;97231.75;6253439;28;20219;-84
2022/06/09 16:17:33;;;;;;;1.00;1.00;;;;;;;15.57;83.12;97228.78;6252983;28;20258;-84
2022/06/09 16:20:39;;;;;;;1.43;1.33;;;;;;;15.50;83.88;97244.50;6235745;28;20604;-85
2022/06/09 16:23:42;;;;;;;1.73;1.30;;;;;;;15.47;84.29;97253.66;6235149;28;20732;-84
2022/06/09 16:26:44;;;;;;;1.33;1.23;;;;;;;15.46;84.53;97261.81;6227716;28;20259;-84
2022/06/09 16:29:46;;;;;;;1.30;1.20;;;;;;;15.44;84.56;97263.78;6244512;28;20783;-85
2022/06/09 16:32:56;;;;;;;2.23;1.23;;;;;;;15.44;84.79;97253.16;6226535;28;20747;-85
2022/06/09 16:35:58;;;;;;;3.57;1.83;;;;;;;15.38;85.58;97257.28;6238730;28;20602;-85
2022/06/09 16:39:01;;;;;;;2.60;1.40;;;;;;;15.34;85.84;97252.47;6234566;28;20231;-83
2022/06/09 16:42:04;;;;;;;2.50;1.47;;;;;;;15.28;86.16;97261.09;6203304;28;20689;-84
2022/06/09 16:45:07;;;;;;;1.43;1.30;;;;;;;15.25;86.53;97270.25;6255561;28;20516;-84
2022/06/09 16:48:09;;;;;;;2.67;1.63;;;;;;;15.16;87.06;97273.88;6240903;28;20745;-84
2022/06/09 16:51:12;;;;;;;1.30;1.20;;;;;;;15.17;86.73;97266.72;6239239;28;20219;-85
2022/06/09 16:54:14;;;;;;;1.70;1.60;;;;;;;15.18;86.77;97265.72;6256895;28;20223;-84
2022/06/09 16:57:16;;;;;;;1.60;1.50;;;;;;;15.15;87.26;97272.22;6215496;28;20675;-84
2022/06/09 17:00:30;;;;;;;2.20;1.60;;;;;;;15.14;87.01;97279.34;6250664;28;20242;-85
2022/06/09 17:03:44;;;;;;;1.70;1.60;;;;;;;15.17;87.76;97283.50;6217766;28;20232;-85
2022/06/09 17:06:49;;;;;;;1.53;1.43;;;;;;;15.17;87.59;97280.84;6206687;28;20229;-84
2022/06/09 17:09:51;;;;;;;2.63;1.50;;;;;;;15.10;87.69;97288.63;6189448;28;20557;-85